Time;durP1;ratioP1;P1;durP2;ratioP2;P2;SDS_P1;SDS_P2;PMS_P1;PMS_P2;Temp;Humidity;BMP_temperature;BMP_pressure;BME280_temperature;BME280_humidity;BME280_pressure;Samples;Min_cycle;Max_cycle;Signal;HPM_P1;HPM_P2
2021/05/23 00:00:49;;;;;;;5.25;1.65;;;;;;;14.79;65.15;100680.23;1669862;85;21206;-61
2021/05/23 00:03:22;;;;;;;3.70;1.60;;;;;;;14.74;65.19;100678.54;1667192;85;21224;-61
2021/05/23 00:05:55;;;;;;;6.67;1.90;;;;;;;14.71;65.27;100676.72;1707570;83;21279;-61
2021/05/23 00:08:29;;;;;;;5.20;1.72;;;;;;;14.68;65.35;100679.65;1742378;81;21347;-61
2021/05/23 00:11:07;;;;;;;3.03;1.47;;;;;;;14.65;65.49;100678.63;1749504;82;21212;-61
2021/05/23 00:13:48;;;;;;;6.20;1.90;;;;;;;14.61;65.55;100672.02;1747816;81;21177;-61
2021/05/23 00:16:23;;;;;;;6.60;2.08;;;;;;;14.58;65.71;100670.98;1748874;82;21339;-61
2021/05/23 00:18:55;;;;;;;7.85;1.80;;;;;;;14.54;65.92;100668.33;1744717;82;21818;-61
2021/05/23 00:21:30;;;;;;;5.67;1.73;;;;;;;14.51;66.05;100665.51;1710423;83;21240;-61
2021/05/23 00:24:04;;;;;;;4.80;1.85;;;;;;;14.49;66.21;100661.37;1746462;81;21287;-61
2021/05/23 00:26:37;;;;;;;4.50;1.80;;;;;;;14.47;66.43;100660.69;1729232;81;21276;-61
2021/05/23 00:29:11;;;;;;;4.03;1.67;;;;;;;14.46;66.59;100661.17;1729152;82;21289;-61
2021/05/23 00:31:44;;;;;;;1.95;1.60;;;;;;;14.45;66.76;100656.88;1705864;83;21165;-61
2021/05/23 00:34:17;;;;;;;6.53;2.00;;;;;;;14.45;66.84;100655.55;1708955;83;21192;-61
2021/05/23 00:36:53;;;;;;;5.00;1.80;;;;;;;14.44;66.90;100655.72;1746353;82;21196;-61
2021/05/23 00:39:25;;;;;;;8.70;1.98;;;;;;;14.41;66.98;100658.64;1714667;83;21331;-61
2021/05/23 00:41:58;;;;;;;4.67;1.80;;;;;;;14.37;67.12;100648.92;1742667;81;21853;-61
2021/05/23 00:44:31;;;;;;;6.07;2.00;;;;;;;14.35;67.20;100644.30;1749432;82;22401;-61
2021/05/23 00:47:04;;;;;;;11.53;2.03;;;;;;;14.32;67.26;100640.64;1748366;81;21996;-61
2021/05/23 00:49:38;;;;;;;4.20;2.35;;;;;;;14.30;67.37;100632.06;1711943;83;21185;-61
2021/05/23 00:52:13;;;;;;;3.10;1.60;;;;;;;14.28;67.40;100631.84;1747085;82;21307;-61
2021/05/23 00:54:46;;;;;;;3.12;1.80;;;;;;;14.26;67.42;100625.39;1713441;82;21752;-61
2021/05/23 00:57:19;;;;;;;;;;;;;;;14.22;67.51;100622.73;1709802;83;21280;-60
2021/05/23 00:59:52;;;;;;;5.87;2.15;;;;;;;14.18;67.59;100623.53;1661663;85;20651;-61
2021/05/23 01:02:47;;;;;;;3.50;1.90;;;;;;;14.12;67.68;100608.80;1706291;83;21225;-60
2021/05/23 01:05:21;;;;;;;5.22;2.00;;;;;;;14.10;67.88;100612.08;1728967;81;21334;-61
2021/05/23 01:07:54;;;;;;;6.08;1.87;;;;;;;14.07;68.09;100602.67;1704070;83;21275;-60
2021/05/23 01:10:28;;;;;;;5.17;1.57;;;;;;;14.07;68.17;100597.41;1737308;82;21930;-60
2021/05/23 01:13:39;;;;;;;7.40;1.82;;;;;;;14.08;68.09;100599.08;1710652;83;21160;-61
2021/05/23 01:16:19;;;;;;;4.17;1.90;;;;;;;14.11;68.15;100605.33;1747573;82;21766;-60
2021/05/23 01:19:00;;;;;;;3.70;1.60;;;;;;;14.17;68.10;100605.23;1749338;81;21746;-61
2021/05/23 01:21:39;;;;;;;3.58;1.87;;;;;;;14.24;67.89;100606.77;1700776;82;21289;-61
2021/05/23 01:24:28;;;;;;;5.50;1.60;;;;;;;14.28;67.74;100610.26;1746382;81;21276;-61
2021/05/23 01:27:01;;;;;;;4.12;1.62;;;;;;;14.32;67.69;100612.98;1748815;81;21732;-61
2021/05/23 01:29:35;;;;;;;4.80;1.67;;;;;;;14.35;67.53;100614.00;1708035;83;21890;-61
2021/05/23 01:32:12;;;;;;;7.58;1.50;;;;;;;14.37;67.52;100615.16;1747350;82;21268;-61
2021/05/23 01:34:44;;;;;;;3.80;1.60;;;;;;;14.39;67.50;100613.20;1746438;82;21240;-61
2021/05/23 01:37:17;;;;;;;2.87;1.50;;;;;;;14.40;67.40;100614.86;1742262;82;21284;-61
2021/05/23 01:39:50;;;;;;;3.87;1.42;;;;;;;14.39;67.22;100621.93;1737120;82;21903;-61
2021/05/23 01:42:23;;;;;;;4.33;1.57;;;;;;;14.38;67.08;100622.06;1726206;82;21371;-61
2021/05/23 01:44:57;;;;;;;8.75;1.72;;;;;;;14.37;66.92;100629.64;1711450;83;21299;-60
2021/05/23 01:47:31;;;;;;;8.98;2.15;;;;;;;14.33;66.88;100630.42;1709792;83;21242;-61
2021/05/23 01:50:05;;;;;;;8.25;1.50;;;;;;;14.30;66.89;100630.75;1747835;82;21941;-61
2021/05/23 01:52:50;;;;;;;3.52;1.65;;;;;;;14.28;66.94;100639.74;1711212;83;21283;-61
2021/05/23 01:55:23;;;;;;;4.58;1.87;;;;;;;14.26;66.97;100643.82;1711169;83;21406;-61
2021/05/23 01:57:56;;;;;;;3.10;1.65;;;;;;;14.26;66.98;100647.77;1703877;83;21335;-61
2021/05/23 02:00:37;;;;;;;4.62;1.90;;;;;;;14.28;66.97;100648.95;1741610;81;21234;-61
2021/05/23 02:03:11;;;;;;;6.55;2.02;;;;;;;14.34;66.87;100661.55;1726892;82;21284;-62
2021/05/23 02:05:48;;;;;;;5.53;1.65;;;;;;;14.39;66.77;100668.03;1711341;83;21193;-62
2021/05/23 02:08:22;;;;;;;4.30;1.70;;;;;;;14.44;66.69;100663.63;1729613;82;21336;-62
2021/05/23 02:11:00;;;;;;;5.92;1.70;;;;;;;14.50;66.66;100664.32;1726829;82;21333;-62
2021/05/23 02:13:33;;;;;;;6.92;1.92;;;;;;;14.56;66.65;100666.36;1744645;81;21197;-62
2021/05/23 02:16:07;;;;;;;6.08;1.67;;;;;;;14.59;66.60;100657.66;1708131;83;21218;-60
2021/05/23 02:18:42;;;;;;;4.28;1.95;;;;;;;14.64;66.39;100650.64;1739259;81;21141;-60
2021/05/23 02:21:15;;;;;;;6.03;1.60;;;;;;;14.66;66.39;100641.57;1742010;81;21335;-60
2021/05/23 02:23:55;;;;;;;6.90;1.80;;;;;;;14.68;66.37;100630.41;1740382;81;21220;-60
2021/05/23 02:26:29;;;;;;;3.37;1.50;;;;;;;14.71;66.29;100631.91;1741633;82;21189;-60
2021/05/23 02:29:02;;;;;;;4.73;1.77;;;;;;;14.75;66.16;100630.62;1715062;83;21848;-60
2021/05/23 02:31:35;;;;;;;2.80;1.50;;;;;;;14.79;65.81;100629.32;1737169;82;22139;-60
2021/05/23 02:34:08;;;;;;;3.90;1.47;;;;;;;14.84;65.64;100623.09;1739047;82;21767;-60
2021/05/23 02:36:41;;;;;;;4.33;1.40;;;;;;;14.91;65.53;100621.98;1736007;81;21886;-60
2021/05/23 02:39:14;;;;;;;3.40;1.50;;;;;;;14.98;65.33;100620.37;1711614;81;21292;-60
2021/05/23 02:41:47;;;;;;;3.10;1.43;;;;;;;15.04;65.08;100620.61;1714823;83;21802;-60
2021/05/23 02:44:20;;;;;;;3.93;1.60;;;;;;;15.10;64.87;100624.41;1737190;82;21240;-60
2021/05/23 02:46:54;;;;;;;2.50;1.40;;;;;;;15.18;64.72;100616.07;1712935;83;21335;-60
2021/05/23 02:49:27;;;;;;;3.08;1.27;;;;;;;15.24;64.62;100606.20;1736489;81;21193;-60
2021/05/23 02:52:00;;;;;;;3.72;1.57;;;;;;;15.32;64.25;100609.38;1736932;82;21165;-60
2021/05/23 02:54:34;;;;;;;8.28;1.55;;;;;;;15.38;63.81;100609.56;1742064;82;21169;-60
2021/05/23 02:57:07;;;;;;;9.83;1.60;;;;;;;15.42;63.55;100601.69;1742001;82;21363;-60
2021/05/23 02:59:40;;;;;;;3.83;1.35;;;;;;;15.48;63.43;100597.59;1737007;81;21466;-60
2021/05/23 03:02:13;;;;;;;8.03;1.60;;;;;;;15.56;63.36;100592.36;1713868;83;21296;-60
2021/05/23 03:04:47;;;;;;;6.43;1.73;;;;;;;15.63;63.24;100590.73;1712262;83;21771;-60
2021/05/23 03:07:20;;;;;;;4.42;1.55;;;;;;;15.69;63.21;100583.48;1741891;82;21272;-60
2021/05/23 03:09:54;;;;;;;6.87;1.40;;;;;;;15.76;63.15;100585.80;1714631;83;21842;-60
2021/05/23 03:12:27;;;;;;;5.97;1.50;;;;;;;15.82;62.88;100588.30;1733977;82;21264;-60
2021/05/23 03:15:00;;;;;;;4.83;1.50;;;;;;;15.90;62.70;100596.25;1713206;83;21215;-60
2021/05/23 03:17:33;;;;;;;5.13;1.40;;;;;;;15.96;62.47;100599.06;1736825;81;21902;-60
2021/05/23 03:20:07;;;;;;;3.37;1.50;;;;;;;16.06;62.30;100604.20;1713347;83;22053;-60
2021/05/23 03:22:41;;;;;;;7.25;1.32;;;;;;;16.16;61.96;100608.35;1734719;82;21185;-60
2021/05/23 03:25:15;;;;;;;2.77;1.05;;;;;;;16.30;61.70;100608.68;1735101;81;21185;-60
2021/05/23 03:27:48;;;;;;;5.40;1.10;;;;;;;16.40;61.53;100610.67;1741780;82;21285;-60
2021/05/23 03:30:29;;;;;;;2.15;1.12;;;;;;;16.49;61.27;100604.39;1708061;83;21815;-60
2021/05/23 03:33:03;;;;;;;2.22;1.10;;;;;;;16.59;61.02;100613.02;1737717;81;21759;-60
2021/05/23 03:35:36;;;;;;;4.70;1.35;;;;;;;16.68;60.81;100610.20;1737872;81;21319;-59
2021/05/23 03:38:09;;;;;;;3.95;1.60;;;;;;;16.79;60.54;100605.05;1714005;83;21276;-59
2021/05/23 03:40:43;;;;;;;3.75;1.40;;;;;;;16.91;60.27;100605.56;1736825;81;21224;-60
2021/05/23 03:43:16;;;;;;;4.03;1.33;;;;;;;17.03;59.88;100597.59;1742008;81;21716;-59
2021/05/23 03:45:49;;;;;;;3.93;1.10;;;;;;;17.17;59.37;100596.89;1727184;82;21418;-59
2021/05/23 03:48:22;;;;;;;5.50;1.30;;;;;;;17.31;58.86;100593.05;1708017;82;21979;-60
2021/05/23 03:50:55;;;;;;;3.70;1.13;;;;;;;17.44;58.34;100589.34;1713563;83;21177;-62
2021/05/23 03:53:28;;;;;;;3.87;1.42;;;;;;;17.57;57.87;100588.83;1731728;82;21216;-61
2021/05/23 03:56:01;;;;;;;6.37;1.20;;;;;;;17.76;57.59;100585.75;1742139;82;21196;-61
2021/05/23 03:58:34;;;;;;;6.28;1.12;;;;;;;18.06;56.93;100591.51;1713322;83;21233;-61
2021/05/23 04:01:07;;;;;;;5.60;1.47;;;;;;;18.60;56.00;100591.45;1714413;83;21233;-59
2021/05/23 04:03:40;;;;;;;4.00;1.60;;;;;;;19.29;54.77;100584.43;1739286;81;21783;-59
2021/05/23 04:06:13;;;;;;;5.58;1.35;;;;;;;20.12;52.91;100584.80;1742260;82;21755;-59
2021/05/23 04:08:47;;;;;;;3.92;1.30;;;;;;;20.91;50.91;100591.30;1727433;81;21146;-59
2021/05/23 04:11:25;;;;;;;2.60;1.17;;;;;;;21.63;48.82;100589.89;1737197;81;21309;-59
2021/05/23 04:13:55;;;;;;;4.12;1.77;;;;;;;22.34;46.83;100591.10;1736700;82;22011;-60
2021/05/23 04:16:28;;;;;;;8.55;1.85;;;;;;;22.93;45.08;100592.97;1713102;83;21870;-59
2021/05/23 04:19:02;;;;;;;4.95;2.17;;;;;;;23.51;43.95;100578.64;1740336;82;21145;-59
2021/05/23 04:21:36;;;;;;;5.58;1.98;;;;;;;24.09;42.24;100574.87;1734336;81;21826;-59
2021/05/23 04:24:10;;;;;;;4.78;1.52;;;;;;;24.37;41.12;100570.95;1737491;82;21344;-59
2021/05/23 04:26:44;;;;;;;4.42;1.60;;;;;;;24.54;40.28;100564.02;1737610;82;21787;-59
2021/05/23 04:29:17;;;;;;;4.25;1.55;;;;;;;24.99;39.70;100566.80;1736894;81;21818;-60
2021/05/23 04:31:50;;;;;;;5.03;1.42;;;;;;;25.60;38.83;100556.53;1714528;83;21271;-60
2021/05/23 04:34:24;;;;;;;5.10;1.35;;;;;;;26.15;37.78;100550.51;1742377;82;21244;-60
2021/05/23 04:36:57;;;;;;;2.08;1.10;;;;;;;26.79;36.29;100547.78;1737795;82;21739;-63
2021/05/23 04:39:30;;;;;;;8.35;1.30;;;;;;;27.38;34.84;100544.78;1736861;82;21291;-63
2021/05/23 04:42:05;;;;;;;3.20;0.90;;;;;;;27.98;33.43;100541.59;1712728;83;21692;-63
2021/05/23 04:44:39;;;;;;;3.83;1.42;;;;;;;28.49;32.68;100541.38;1734723;82;21379;-62
2021/05/23 04:47:13;;;;;;;5.12;1.20;;;;;;;28.56;32.25;100548.76;1737001;82;21327;-61
2021/05/23 04:49:46;;;;;;;3.20;1.15;;;;;;;28.22;32.66;100547.67;1734239;82;21799;-62
2021/05/23 04:52:20;;;;;;;6.47;1.47;;;;;;;27.72;33.04;100554.30;1735453;82;21684;-62
2021/05/23 04:54:52;;;;;;;;;;;;;;;27.23;33.84;100571.31;1713801;83;21394;-60
2021/05/23 04:57:25;;;;;;;4.37;1.17;;;;;;;26.93;34.19;100569.84;1658288;84;20167;-60
2021/05/23 04:59:59;;;;;;;5.85;1.25;;;;;;;26.52;34.80;100566.72;1711447;83;21863;-59
2021/05/23 05:02:32;;;;;;;4.05;1.12;;;;;;;26.20;35.34;100567.53;1712208;83;21184;-60
2021/05/23 05:05:07;;;;;;;3.17;1.20;;;;;;;25.89;35.79;100581.17;1741809;81;21196;-61
2021/05/23 05:07:42;;;;;;;4.05;1.35;;;;;;;25.61;36.64;100578.27;1711823;83;21166;-61
2021/05/23 05:10:15;;;;;;;1.82;1.15;;;;;;;25.33;37.15;100576.94;1713618;83;21863;-61
2021/05/23 05:12:48;;;;;;;;;;;;;;;25.12;37.27;100576.05;1739168;82;21284;-61
2021/05/23 05:15:21;;;;;;;6.00;1.40;;;;;;;24.97;38.24;100577.44;1732441;82;20299;-61
2021/05/23 05:17:55;;;;;;;7.00;1.10;;;;;;;24.82;38.43;100574.28;1741559;81;21216;-60
2021/05/23 05:20:28;;;;;;;6.20;1.60;;;;;;;24.80;38.91;100579.05;1712747;83;21276;-61
2021/05/23 05:23:02;;;;;;;5.03;1.10;;;;;;;24.83;39.06;100581.29;1737506;82;21230;-60
2021/05/23 05:25:34;;;;;;;;;;;;;;;24.81;39.26;100580.70;1735413;82;21232;-60
2021/05/23 05:28:07;;;;;;;1.95;1.10;;;;;;;24.81;39.63;100583.38;1738062;81;20157;-61
2021/05/23 05:30:40;;;;;;;6.90;1.05;;;;;;;24.84;39.43;100581.60;1736853;82;21180;-60
2021/05/23 05:33:13;;;;;;;3.25;1.10;;;;;;;25.05;39.02;100586.53;1712938;83;21353;-60
2021/05/23 05:35:46;;;;;;;3.47;1.20;;;;;;;25.40;39.12;100584.89;1736994;81;21264;-61
2021/05/23 05:38:19;;;;;;;1.35;0.90;;;;;;;25.68;38.65;100591.88;1711662;83;21800;-59
2021/05/23 05:40:54;;;;;;;3.52;0.80;;;;;;;25.95;37.86;100591.01;1712322;83;21711;-60
2021/05/23 05:43:27;;;;;;;1.10;0.90;;;;;;;26.60;37.20;100591.38;1741930;81;21169;-65
2021/05/23 05:46:00;;;;;;;1.95;0.90;;;;;;;27.81;36.13;100585.96;1730822;82;21229;-65
2021/05/23 05:48:33;;;;;;;1.95;1.10;;;;;;;29.23;34.09;100581.05;1736871;81;21722;-69
2021/05/23 05:51:08;;;;;;;3.50;0.85;;;;;;;30.50;31.28;100574.55;1736266;81;21140;-69
2021/05/23 05:53:42;;;;;;;4.90;1.10;;;;;;;31.58;29.88;100575.73;1743408;81;21701;-69
2021/05/23 05:56:15;;;;;;;3.50;0.93;;;;;;;32.51;28.53;100564.52;1737320;82;21323;-68
2021/05/23 05:58:48;;;;;;;;;;;;;;;33.21;27.65;100562.21;1744300;81;21815;-63
2021/05/23 06:01:20;;;;;;;2.92;0.80;;;;;;;33.39;26.94;100562.11;1736577;82;20749;-63
2021/05/23 06:03:53;;;;;;;;;;;;;;;33.22;26.66;100561.67;1744183;81;21347;-62
2021/05/23 06:06:25;;;;;;;2.27;0.80;;;;;;;32.90;27.37;100571.50;1737262;81;20182;-62
2021/05/23 06:08:59;;;;;;;5.67;0.98;;;;;;;32.44;27.77;100565.30;1713107;83;21160;-63
2021/05/23 06:11:34;;;;;;;2.60;0.93;;;;;;;31.92;28.16;100560.13;1741244;82;21177;-63
2021/05/23 06:14:06;;;;;;;;;;;;;;;31.33;28.90;100558.05;1744138;81;21220;-62
2021/05/23 06:16:39;;;;;;;4.53;1.30;;;;;;;30.75;29.92;100552.30;1737384;82;20202;-62
2021/05/23 06:19:13;;;;;;;2.98;1.15;;;;;;;30.15;30.46;100555.34;1741957;81;21770;-62
2021/05/23 06:21:45;;;;;;;;;;;;;;;29.63;31.60;100557.77;1746153;81;21189;-62
2021/05/23 06:24:18;;;;;;;3.00;1.00;;;;;;;29.13;32.68;100564.70;1731584;81;20178;-61
2021/05/23 06:26:51;;;;;;;9.85;1.40;;;;;;;28.60;33.67;100560.72;1742146;82;21248;-62
2021/05/23 06:29:24;;;;;;;4.12;1.52;;;;;;;28.21;34.41;100562.19;1742003;82;21177;-61
2021/05/23 06:31:57;;;;;;;3.75;0.98;;;;;;;27.86;34.98;100562.36;1736873;81;21723;-61
2021/05/23 06:34:30;;;;;;;3.35;0.88;;;;;;;27.59;35.43;100563.98;1736778;81;21176;-62
2021/05/23 06:37:03;;;;;;;;;;;;;;;27.40;35.78;100564.70;1739376;82;21335;-67
2021/05/23 06:39:37;;;;;;;5.00;1.27;;;;;;;27.26;35.92;100574.05;1738049;81;20285;-63
2021/05/23 06:42:11;;;;;;;3.95;1.00;;;;;;;27.17;36.04;100573.63;1741685;82;21683;-63
2021/05/23 06:44:45;;;;;;;4.50;1.10;;;;;;;27.33;35.98;100563.47;1713153;83;21810;-64
2021/05/23 06:47:18;;;;;;;4.53;1.12;;;;;;;27.44;36.68;100562.36;1735287;81;21791;-62
2021/05/23 06:49:51;;;;;;;;;;;;;;;27.43;36.48;100563.41;1745778;82;21225;-64
2021/05/23 06:52:25;;;;;;;2.30;0.98;;;;;;;27.38;36.43;100564.12;1741812;82;20209;-62
2021/05/23 06:54:58;;;;;;;4.08;1.10;;;;;;;27.27;36.58;100564.40;1741902;82;21244;-63
2021/05/23 06:57:31;;;;;;;3.17;1.20;;;;;;;27.19;36.88;100562.62;1741091;81;21320;-62
2021/05/23 07:00:08;;;;;;;4.25;1.10;;;;;;;27.24;36.64;100563.55;1736775;82;21315;-63
2021/05/23 07:02:41;;;;;;;4.45;0.98;;;;;;;27.31;36.76;100558.03;1741764;82;21764;-63
2021/05/23 07:05:14;;;;;;;5.00;1.27;;;;;;;27.42;36.83;100559.10;1706985;83;21819;-62
2021/05/23 07:07:47;;;;;;;2.90;1.10;;;;;;;27.51;36.61;100554.97;1742183;81;21279;-63
2021/05/23 07:10:20;;;;;;;2.15;1.07;;;;;;;27.61;36.81;100557.87;1713105;83;21314;-63
2021/05/23 07:12:53;;;;;;;;;;;;;;;27.68;36.65;100556.64;1702229;82;21348;-64
2021/05/23 07:15:27;;;;;;;1.72;1.00;;;;;;;27.67;36.82;100553.68;1738737;81;20210;-62
2021/05/23 07:18:00;;;;;;;4.08;1.10;;;;;;;27.62;36.59;100556.27;1737475;81;21324;-62
2021/05/23 07:20:34;;;;;;;2.85;1.00;;;;;;;27.53;37.04;100557.72;1739064;82;21285;-64
2021/05/23 07:23:07;;;;;;;2.60;1.15;;;;;;;27.39;37.26;100562.53;1713216;83;21363;-63
2021/05/23 07:25:43;;;;;;;5.47;0.93;;;;;;;27.23;37.72;100569.97;1741756;81;21165;-62
2021/05/23 07:28:15;;;;;;;;;;;;;;;27.06;38.06;100573.09;1737438;81;21177;-62
2021/05/23 07:30:48;;;;;;;3.85;1.30;;;;;;;26.93;38.33;100574.70;1739607;81;20571;-62
2021/05/23 07:33:21;;;;;;;0.98;0.95;;;;;;;26.79;38.83;100581.88;1748315;81;21221;-63
2021/05/23 07:35:54;;;;;;;5.58;1.30;;;;;;;26.64;39.14;100586.34;1747457;81;21331;-65
2021/05/23 07:38:27;;;;;;;3.95;0.93;;;;;;;26.51;39.58;100593.29;1751890;81;21872;-64
2021/05/23 07:41:00;;;;;;;5.15;1.20;;;;;;;26.39;39.61;100594.59;1753239;81;21810;-63
2021/05/23 07:43:34;;;;;;;5.00;1.12;;;;;;;26.29;39.82;100595.70;1743634;81;21200;-62
2021/05/23 07:46:07;;;;;;;3.10;1.22;;;;;;;26.20;40.28;100602.97;1750465;81;21818;-63
2021/05/23 07:48:40;;;;;;;;;;;;;;;26.09;40.38;100604.01;1750557;81;21220;-62
2021/05/23 07:51:13;;;;;;;2.85;1.30;;;;;;;26.03;40.32;100616.98;1750197;81;20204;-61
2021/05/23 07:53:46;;;;;;;4.83;1.22;;;;;;;25.97;40.41;100618.42;1750268;81;21144;-62
2021/05/23 07:56:19;;;;;;;4.30;1.30;;;;;;;25.94;41.11;100612.98;1750183;81;21216;-62
2021/05/23 07:58:52;;;;;;;2.67;1.05;;;;;;;25.89;40.86;100607.48;1749390;81;21807;-62
2021/05/23 08:01:25;;;;;;;2.37;0.90;;;;;;;25.86;41.37;100611.98;1742357;81;21822;-62
2021/05/23 08:03:58;;;;;;;3.60;1.10;;;;;;;25.85;40.93;100611.67;1737366;82;21169;-63
2021/05/23 08:06:33;;;;;;;9.30;1.17;;;;;;;25.84;40.93;100607.34;1750026;81;21229;-62
2021/05/23 08:09:07;;;;;;;7.87;1.65;;;;;;;25.85;41.00;100608.99;1730248;82;21866;-62
2021/05/23 08:11:41;;;;;;;2.30;1.10;;;;;;;25.90;41.46;100605.11;1752424;81;21196;-62
2021/05/23 08:14:15;;;;;;;4.00;1.17;;;;;;;25.95;41.31;100605.25;1745500;81;21274;-61
2021/05/23 08:16:48;;;;;;;2.87;1.27;;;;;;;26.03;40.88;100611.61;1745084;81;21266;-64
2021/05/23 08:19:22;;;;;;;2.67;1.02;;;;;;;26.09;40.89;100612.58;1738949;81;21767;-65
2021/05/23 08:21:56;;;;;;;3.20;1.40;;;;;;;26.13;40.63;100600.91;1752402;81;21276;-66
2021/05/23 08:24:32;;;;;;;5.22;1.17;;;;;;;26.15;40.37;100600.16;1737222;81;21220;-65
2021/05/23 08:27:06;;;;;;;2.40;1.20;;;;;;;26.18;40.50;100602.36;1743627;81;21312;-62
2021/05/23 08:29:39;;;;;;;3.72;1.02;;;;;;;26.22;40.37;100599.02;1739039;81;22220;-61
2021/05/23 08:32:12;;;;;;;3.27;0.82;;;;;;;26.31;39.83;100604.86;1747939;81;21166;-63
2021/05/23 08:34:45;;;;;;;6.15;1.25;;;;;;;26.40;39.74;100598.92;1754920;81;21351;-61
2021/05/23 08:37:18;;;;;;;4.08;1.10;;;;;;;26.48;39.53;100597.77;1761914;81;21220;-61
2021/05/23 08:39:52;;;;;;;3.15;0.98;;;;;;;26.55;39.16;100591.25;1738764;81;21385;-61
2021/05/23 08:42:24;;;;;;;5.17;1.35;;;;;;;26.60;39.08;100590.55;1751097;81;21291;-62
2021/05/23 08:44:57;;;;;;;;;;;;;;;26.65;38.96;100585.30;1745359;81;22007;-60
2021/05/23 08:47:30;;;;;;;2.35;1.25;;;;;;;26.74;39.16;100591.95;1752579;81;20686;-60
2021/05/23 08:50:03;;;;;;;4.95;0.98;;;;;;;26.90;39.15;100594.48;1714275;82;21181;-60
2021/05/23 08:52:36;;;;;;;3.00;1.20;;;;;;;27.18;38.54;100599.42;1744776;81;21192;-60
2021/05/23 08:55:11;;;;;;;4.80;1.25;;;;;;;27.68;37.66;100599.68;1756723;81;21787;-63
2021/05/23 08:57:44;;;;;;;3.25;0.98;;;;;;;28.25;36.68;100595.66;1744750;81;21280;-59
2021/05/23 09:00:18;;;;;;;6.25;1.12;;;;;;;28.60;36.15;100605.17;1731173;81;21308;-58
2021/05/23 09:03:03;;;;;;;5.92;1.17;;;;;;;28.87;35.13;100605.32;1752417;81;21281;-63
2021/05/23 09:05:50;;;;;;;2.65;1.20;;;;;;;29.01;34.75;100604.43;1759953;81;21288;-59
2021/05/23 09:08:30;;;;;;;4.65;1.10;;;;;;;29.03;34.40;100603.64;1762779;81;21269;-59
2021/05/23 09:11:05;;;;;;;4.33;1.10;;;;;;;28.93;34.69;100612.92;1742522;81;21274;-59
2021/05/23 09:13:39;;;;;;;3.22;1.00;;;;;;;28.79;34.77;100608.42;1744931;81;21331;-60
2021/05/23 09:16:16;;;;;;;4.25;1.00;;;;;;;28.62;35.05;100605.73;1748409;81;21796;-60
2021/05/23 09:18:57;;;;;;;3.85;1.02;;;;;;;28.42;35.75;100597.84;1748513;81;21731;-60
2021/05/23 09:21:33;;;;;;;3.83;1.22;;;;;;;28.19;36.15;100588.02;1759955;81;21222;-60
2021/05/23 09:24:08;;;;;;;3.10;1.30;;;;;;;28.00;36.66;100587.94;1749111;81;21803;-60
2021/05/23 09:26:44;;;;;;;1.85;1.12;;;;;;;27.84;36.60;100590.05;1755425;81;21213;-59
2021/05/23 09:29:22;;;;;;;6.67;1.20;;;;;;;27.71;36.72;100584.41;1750565;81;21276;-64
2021/05/23 09:31:58;;;;;;;2.37;0.98;;;;;;;27.61;37.31;100572.11;1744302;81;21180;-60
2021/05/23 09:34:31;;;;;;;2.15;1.00;;;;;;;27.51;37.65;100569.77;1743562;81;21767;-61
2021/05/23 09:37:04;;;;;;;3.33;1.40;;;;;;;27.42;38.16;100566.62;1737384;81;21272;-60
2021/05/23 09:39:39;;;;;;;4.30;1.00;;;;;;;27.35;38.06;100574.80;1695143;81;21300;-61
2021/05/23 09:42:13;;;;;;;2.55;1.02;;;;;;;27.31;38.35;100583.58;1742616;81;21314;-61
2021/05/23 09:44:47;;;;;;;2.40;1.07;;;;;;;27.22;38.53;100588.52;1754390;81;21252;-61
2021/05/23 09:47:20;;;;;;;2.02;1.07;;;;;;;27.10;38.82;100586.37;1750303;81;21269;-62
2021/05/23 09:49:56;;;;;;;4.97;1.00;;;;;;;27.10;38.82;100586.37;1737320;81;21826;-61
2021/05/23 09:52:37;;;;;;;2.35;1.02;;;;;;;27.10;38.52;100586.37;1744937;81;21232;-62
2021/05/23 09:55:10;;;;;;;5.03;1.30;;;;;;;27.19;38.59;100580.91;1750264;81;21275;-60
2021/05/23 09:57:45;;;;;;;2.98;1.07;;;;;;;27.30;38.03;100578.72;1747654;81;21172;-60
2021/05/23 10:00:19;;;;;;;2.45;1.20;;;;;;;27.46;38.43;100581.23;1738834;81;21156;-60
2021/05/23 10:02:55;;;;;;;;;;;;;;;27.68;38.15;100580.06;1747134;81;21272;-63
2021/05/23 10:05:28;;;;;;;1.90;1.02;;;;;;;27.83;37.31;100569.56;1748243;81;20207;-60
2021/05/23 10:08:15;;;;;;;4.72;1.22;;;;;;;28.02;36.82;100572.37;1730956;81;21193;-60
2021/05/23 10:10:49;;;;;;;2.17;1.25;;;;;;;28.27;36.85;100574.17;1750164;81;21803;-58
2021/05/23 10:13:22;;;;;;;;;;;;;;;28.44;36.73;100572.30;1750811;81;21322;-61
2021/05/23 10:15:54;;;;;;;3.20;1.00;;;;;;;28.54;36.12;100575.13;1737292;81;20172;-60
2021/05/23 10:18:29;;;;;;;5.08;1.07;;;;;;;28.61;36.45;100568.28;1742782;81;22138;-61
2021/05/23 10:21:02;;;;;;;2.10;1.00;;;;;;;28.68;35.38;100561.63;1743013;81;21744;-57
2021/05/23 10:23:54;;;;;;;1.80;0.90;;;;;;;28.72;35.48;100553.89;1746284;81;21280;-59
2021/05/23 10:26:28;;;;;;;2.80;1.20;;;;;;;28.76;35.04;100552.32;1742389;81;22695;-59
2021/05/23 10:29:02;;;;;;;2.42;1.15;;;;;;;28.78;35.38;100552.88;1750303;81;21669;-58
2021/05/23 10:31:38;;;;;;;2.12;1.30;;;;;;;28.79;35.48;100549.66;1750146;81;21365;-60
2021/05/23 10:34:11;;;;;;;2.50;0.90;;;;;;;28.78;35.72;100548.84;1750200;81;21232;-63
2021/05/23 10:36:46;;;;;;;2.95;1.10;;;;;;;28.69;35.69;100555.72;1737334;81;21271;-68
2021/05/23 10:39:19;;;;;;;3.05;1.00;;;;;;;28.55;35.16;100546.32;1755586;81;21854;-66
2021/05/23 10:41:53;;;;;;;1.67;1.00;;;;;;;28.37;35.48;100548.76;1750667;81;21273;-61
2021/05/23 10:44:27;;;;;;;2.45;1.00;;;;;;;28.16;35.25;100544.08;1695547;81;21799;-59
2021/05/23 10:47:07;;;;;;;1.98;1.40;;;;;;;27.98;35.75;100547.80;1748176;81;21289;-60
2021/05/23 10:50:05;;;;;;;6.25;1.15;;;;;;;27.86;36.19;100547.56;1756533;81;21315;-61
2021/05/23 10:52:40;;;;;;;3.80;1.10;;;;;;;27.76;35.90;100550.89;1741190;81;21271;-61
2021/05/23 10:55:15;;;;;;;2.60;0.90;;;;;;;27.65;35.62;100546.38;1745918;81;21327;-60
2021/05/23 10:57:52;;;;;;;3.55;1.20;;;;;;;27.57;36.22;100546.76;1737464;81;21163;-57
2021/05/23 11:00:36;;;;;;;1.47;1.20;;;;;;;27.54;36.38;100542.41;1720317;81;21866;-58
2021/05/23 11:03:17;;;;;;;3.50;1.00;;;;;;;27.50;36.48;100540.70;1752164;81;21200;-59
2021/05/23 11:06:05;;;;;;;1.90;1.20;;;;;;;27.45;36.04;100536.57;1742428;81;21193;-57
2021/05/23 11:08:39;;;;;;;2.98;0.90;;;;;;;27.33;36.06;100542.48;1762231;81;21276;-60
2021/05/23 11:11:22;;;;;;;5.25;1.05;;;;;;;27.25;35.37;100538.28;1752072;81;21160;-63
2021/05/23 11:13:55;;;;;;;3.62;1.05;;;;;;;27.28;35.62;100546.41;1742562;81;21308;-59
2021/05/23 11:16:29;;;;;;;1.27;0.90;;;;;;;27.37;35.91;100534.22;1753217;81;21240;-60
2021/05/23 11:19:05;;;;;;;2.12;1.02;;;;;;;27.44;35.95;100532.27;1745139;81;21266;-59
2021/05/23 11:21:47;;;;;;;1.47;0.98;;;;;;;27.50;35.35;100529.13;1766693;81;21335;-59
2021/05/23 11:24:35;;;;;;;2.80;1.27;;;;;;;27.51;35.44;100542.35;1758347;81;22448;-63
2021/05/23 11:27:13;;;;;;;3.37;1.00;;;;;;;27.49;35.39;100543.09;1746991;81;21182;-68
2021/05/23 11:29:53;;;;;;;3.27;0.80;;;;;;;27.43;35.32;100536.52;1746035;81;21233;-65
2021/05/23 11:32:27;;;;;;;5.70;0.90;;;;;;;27.38;35.12;100546.65;1744628;81;21244;-63
2021/05/23 11:35:00;;;;;;;1.90;0.80;;;;;;;27.30;34.90;100533.54;1746954;81;21283;-66
2021/05/23 11:37:41;;;;;;;1.32;0.85;;;;;;;27.24;35.85;100533.98;1744851;81;21319;-62
2021/05/23 11:40:15;;;;;;;1.35;0.75;;;;;;;27.24;35.89;100535.33;1737393;81;21814;-66
2021/05/23 11:42:49;;;;;;;2.80;1.00;;;;;;;27.24;35.91;100529.13;1754215;81;21323;-60
2021/05/23 11:45:23;;;;;;;1.57;0.70;;;;;;;27.13;35.62;100522.72;1746747;81;21233;-63
2021/05/23 11:47:56;;;;;;;1.55;0.95;;;;;;;27.04;35.69;100526.01;1747762;81;21329;-59
2021/05/23 11:50:30;;;;;;;0.98;0.90;;;;;;;26.99;36.33;100526.72;1753236;81;21336;-60
2021/05/23 11:53:03;;;;;;;0.93;0.70;;;;;;;26.97;36.21;100518.60;1751056;81;21308;-61
2021/05/23 11:55:37;;;;;;;1.00;0.80;;;;;;;26.91;36.25;100523.07;1737924;81;21130;-61
2021/05/23 11:58:13;;;;;;;1.72;0.95;;;;;;;26.84;35.59;100521.04;1737537;81;21232;-64
2021/05/23 12:00:46;;;;;;;2.08;0.95;;;;;;;26.84;35.59;100521.04;1754313;81;21283;-59
2021/05/23 12:03:19;;;;;;;2.22;0.88;;;;;;;26.74;35.28;100522.13;1745294;81;21279;-62